difox.com alexa rank chart, difox.com alexa rank daily changes

difox.com alexa rank chart, difox.com alexa rank daily changes

difox.com
Actual rank:
364 568

RANK HISTORY

Date Rank Diff
2017/08/16 364 568 -22 626
2017/08/15 387 194 +20 789
2017/08/14 366 405 +6 997
2017/08/13 359 408 -9 430
2017/08/12 368 838 +6 522
2017/08/11 362 316 -6 820
2017/08/10 369 136 -11 434
2017/08/09 380 570 +3 345
2017/08/08 377 225 +3 956
2017/08/07 373 269 -12 692
2017/08/06 385 961 -12 612
2017/08/05 398 573 -18 406
2017/08/04 416 979 -19 777
2017/08/03 436 756 -14 203
2017/08/02 450 959 -9 072
2017/08/01 460 031 +4 765
2017/07/31 455 266 +15 130
2017/07/30 440 136 +8 305
2017/07/29 431 831 +9 305
2017/07/28 422 526 -4 330
2017/07/27 426 856 +525
2017/07/26 426 331 +4 025
2017/07/25 422 306 +4 925
2017/07/24 417 381 +303
2017/07/23 417 078 +4 699
2017/07/22 412 379 +12 037
2017/07/21 400 342 +11 870
2017/07/20 388 472 -5 459
2017/07/19 393 931 +6 995
2017/07/18 386 936 +5 345
2017/07/17 381 591 +12 343
2017/07/16 369 248 +1 242
2017/07/15 368 006 -3 306
2017/07/14 371 312 -10 787
2017/07/13 382 099 -2 081
2017/07/12 384 180 -10 789
2017/07/11 394 969 +4 111
2017/07/10 390 858 +30 131
2017/07/09 360 727 +4 231
2017/07/08 356 496 +2 703
2017/07/07 353 793 +18 041
2017/07/06 335 752 -8 453
2017/07/05 344 205 +3 429
2017/07/04 340 776 +4 823
2017/07/03 335 953 +8 280
2017/07/02 327 673 +5 443
2017/07/01 322 230 +1 015
2017/06/30 321 215 +1 217
2017/06/29 319 998 -7 447
2017/06/28 327 445 -2 322
2017/06/27 329 767 +4 469
2017/06/26 325 298 +4 487
2017/06/25 320 811 +3 917
2017/06/24 316 894 -1 461
2017/06/23 318 355 -6 993
2017/06/22 325 348 -10 371
2017/06/21 335 719 +340
2017/06/20 335 379 -374
2017/06/19 335 753 -5 541
2017/06/18 341 294 +1 037
2017/06/17 340 257

WIDGET FOR YOUR SITE

DOMAINS WITH THE NEAREST RANK

Domain Rank
lombokbaratkab.go.id 364 563
kaufmann.cl 364 564
ottantaottanta.it 364 565
kinetic-revolution.com 364 566
sov5.cn 364 567
difox.com 364 568
fxgiants.co.uk 364 569
claudechristian.com 364 570
cignabehavioral.com 364 571
imenator.ru 364 572
bitheroesgame.com 364 573

DOMAINS WITH THE NEAREST RANK BY TLD .com

Domain Rank
bokuaca.com 364 556
puzz.com 364 557
bitofsex.com 364 558
newchapter.com 364 560
kinetic-revolution.com 364 566
difox.com 364 568
claudechristian.com 364 570
cignabehavioral.com 364 571
bitheroesgame.com 364 573
benchmarkeducation.com 364 575
simplemodern.com 364 577